Terminal Aerodrome Forecast
Issued by NWS Bismarck, ND

Home | Current Version | Previous Version | Graphics & Text | Print | Product List | Glossary Off
Versions: 1 2 3 4 5 6 7 8 9 10 11 12 13 14 15 16 17 18 19 20 21 22 23

000
FTUS43 KBIS 020500
TAFBIS
TAF
KBIS 020531Z 0206/0306 29007KT P6SM BKN070
     FM020900 24007KT P6SM SCT070
     FM021700 27014KT P6SM VCSH BKN035 BKN060
     FM022100 30022G30KT P6SM BKN040 BKN060=

USA.gov is the U.S. government's official web portal to all federal, state and local government web resources and services.